Time;durP1;ratioP1;P1;durP2;ratioP2;P2;SDS_P1;SDS_P2;PMS_P1;PMS_P2;Temp;Humidity;BMP_temperature;BMP_pressure;BME280_temperature;BME280_humidity;BME280_pressure;Samples;Min_cycle;Max_cycle;Signal;HPM_P1;HPM_P2
2022/01/11 00:00:23;;;;;;;62.60;33.28;;;;;;;0.50;100.00;102796.63;5116509;28;20031;-51
2022/01/11 00:02:50;;;;;;;68.28;34.08;;;;;;;0.31;100.00;102767.38;5081456;28;20127;-50
2022/01/11 00:05:26;;;;;;;63.45;32.63;;;;;;;0.72;100.00;102847.63;5116318;28;20027;-52
2022/01/11 00:07:52;;;;;;;67.22;33.22;;;;;;;0.62;100.00;102829.94;5116712;28;20028;-51
2022/01/11 00:12:52;;;;;;;65.93;31.20;;;;;;;0.64;100.00;102856.81;5099574;28;20032;-51
2022/01/11 00:15:18;;;;;;;64.75;32.65;;;;;;;0.10;100.00;102759.63;5116123;28;20403;-53
2022/01/11 00:17:43;;;;;;;65.53;31.90;;;;;;;0.48;100.00;102838.88;5081266;28;20046;-52
2022/01/11 00:20:12;;;;;;;66.80;33.63;;;;;;;0.63;100.00;102867.09;5116418;28;20032;-50
2022/01/11 00:22:49;;;;;;;66.05;33.30;;;;;;;0.64;100.00;102881.84;5081544;28;20493;-49
2022/01/11 00:25:14;;;;;;;65.90;33.00;;;;;;;0.56;100.00;102865.97;5095064;28;20107;-47
2022/01/11 00:27:40;;;;;;;65.07;32.05;;;;;;;0.56;100.00;102872.03;5115714;28;20131;-48
2022/01/11 00:30:08;;;;;;;64.82;32.10;;;;;;;0.47;100.00;102855.22;5089307;28;20153;-49
2022/01/11 00:32:41;;;;;;;71.20;32.50;;;;;;;-0.02;100.00;102770.34;5113953;28;20042;-54
2022/01/11 00:35:10;;;;;;;70.75;34.17;;;;;;;0.62;100.00;102883.47;5098570;28;20436;-50
2022/01/11 00:37:36;;;;;;;68.40;33.97;;;;;;;0.62;100.00;102886.06;5097415;28;20031;-47
2022/01/11 00:40:04;;;;;;;68.53;34.33;;;;;;;0.50;100.00;102861.41;5115123;28;20427;-48
2022/01/11 00:42:30;;;;;;;73.70;33.10;;;;;;;0.64;100.00;102882.72;5096969;28;20070;-49
2022/01/11 00:44:55;;;;;;;72.97;35.30;;;;;;;0.12;100.00;102786.44;5114992;28;20462;-51
2022/01/11 00:47:20;;;;;;;67.30;32.28;;;;;;;0.74;100.00;102890.03;5096956;28;20035;-52
2022/01/11 00:49:46;;;;;;;68.90;32.13;;;;;;;0.72;100.00;102880.44;5097618;28;20080;-51
2022/01/11 00:52:12;;;;;;;68.82;34.33;;;;;;;0.51;100.00;102839.88;5115644;28;20114;-49
2022/01/11 00:54:37;;;;;;;69.40;32.25;;;;;;;0.74;100.00;102879.66;5115498;28;20078;-49
2022/01/11 00:57:03;;;;;;;68.35;33.30;;;;;;;0.28;100.00;102794.03;5115363;28;20031;-48
2022/01/11 00:59:29;;;;;;;64.03;33.17;;;;;;;0.83;100.00;102884.31;5115218;28;20031;-54
2022/01/11 01:01:54;;;;;;;62.17;32.03;;;;;;;0.84;100.00;102887.00;5115441;28;20368;-51
2022/01/11 01:04:19;;;;;;;64.45;31.92;;;;;;;0.84;100.00;102884.41;5097133;28;20081;-50
2022/01/11 01:06:45;;;;;;;59.63;30.55;;;;;;;0.25;100.00;102774.88;5115437;28;20382;-49
2022/01/11 01:09:11;;;;;;;63.17;31.77;;;;;;;0.48;100.00;102812.97;5096640;28;20116;-53
2022/01/11 01:11:37;;;;;;;59.70;31.20;;;;;;;0.50;100.00;102808.72;5096767;28;20122;-48
2022/01/11 01:14:02;;;;;;;54.75;30.75;;;;;;;0.50;100.00;102827.72;5096632;28;20119;-50
2022/01/11 01:16:28;;;;;;;60.05;30.33;;;;;;;0.88;100.00;102891.47;5114905;28;20031;-51
2022/01/11 01:18:53;;;;;;;64.63;33.40;;;;;;;0.25;100.00;102769.72;5115129;28;20102;-52
2022/01/11 01:21:19;;;;;;;65.00;32.83;;;;;;;0.89;100.00;102885.47;5115141;28;20082;-49
2022/01/11 01:23:44;;;;;;;67.68;35.53;;;;;;;0.83;100.00;102871.38;5114973;28;20028;-50
2022/01/11 01:26:11;;;;;;;71.53;34.55;;;;;;;0.92;100.00;102887.28;5096557;28;20034;-48
2022/01/11 01:28:37;;;;;;;61.95;33.35;;;;;;;0.94;100.00;102896.00;5114999;28;20035;-49
2022/01/11 01:31:02;;;;;;;69.05;36.08;;;;;;;0.58;100.00;102818.56;5079676;28;20115;-53
2022/01/11 01:33:29;;;;;;;69.15;37.08;;;;;;;0.89;100.00;102888.06;5096726;28;20476;-53
2022/01/11 01:36:01;;;;;;;72.10;36.53;;;;;;;0.82;100.00;102872.19;5079848;28;20059;-49
2022/01/11 01:38:26;;;;;;;69.03;35.95;;;;;;;0.94;100.00;102908.97;5097485;28;20059;-52
2022/01/11 01:40:56;;;;;;;71.95;37.53;;;;;;;0.51;100.00;102821.75;5115084;28;20039;-50
2022/01/11 01:43:23;;;;;;;73.70;36.60;;;;;;;0.79;100.00;102869.50;5114485;28;20047;-47
2022/01/11 01:45:50;;;;;;;69.47;36.92;;;;;;;0.51;100.00;102813.06;5096872;28;20020;-48
2022/01/11 01:48:16;;;;;;;74.15;37.58;;;;;;;0.95;100.00;102897.78;5114471;28;20118;-49
2022/01/11 01:50:42;;;;;;;74.25;37.55;;;;;;;0.98;100.00;102903.09;5096617;28;20063;-51
2022/01/11 01:53:10;;;;;;;71.63;37.92;;;;;;;0.44;100.00;102813.63;5114598;28;20039;-50
2022/01/11 01:55:39;;;;;;;73.30;39.10;;;;;;;1.01;100.00;102904.09;5079670;28;20071;-51
2022/01/11 01:58:05;;;;;;;69.25;38.03;;;;;;;0.47;100.00;102819.84;5113995;28;20390;-51
2022/01/11 02:00:30;;;;;;;71.75;36.08;;;;;;;1.01;100.00;102911.00;5096310;28;20031;-49
2022/01/11 02:03:11;;;;;;;76.57;37.50;;;;;;;0.96;100.00;102904.75;5114486;28;20039;-51
2022/01/11 02:05:38;;;;;;;;;;;;;;;0.95;100.00;102909.03;5115006;28;20027;-49
2022/01/11 02:08:05;;;;;;;72.78;34.63;;;;;;;0.96;100.00;102904.75;5114069;28;19918;-51
2022/01/11 02:10:30;;;;;;;75.90;38.30;;;;;;;0.92;100.00;102905.44;5078845;28;20023;-52
2022/01/11 02:12:57;;;;;;;71.68;36.80;;;;;;;0.33;100.00;102787.31;5114467;28;20097;-48
2022/01/11 02:15:22;;;;;;;70.32;37.08;;;;;;;0.92;100.00;102915.81;5113769;28;20501;-51
2022/01/11 02:17:48;;;;;;;69.68;36.38;;;;;;;0.74;100.00;102884.84;5113742;28;20027;-51
2022/01/11 02:20:13;;;;;;;83.75;39.63;;;;;;;0.89;100.00;102921.75;5113027;28;20032;-50
2022/01/11 02:22:39;;;;;;;83.38;40.00;;;;;;;0.40;100.00;102841.16;5113265;28;20080;-50
2022/01/11 02:25:05;;;;;;;77.80;39.10;;;;;;;0.71;100.00;102892.50;5095572;28;20043;-51
2022/01/11 02:27:30;;;;;;;80.03;39.60;;;;;;;0.48;100.00;102857.00;5113984;28;20035;-53
2022/01/11 02:29:56;;;;;;;78.65;40.03;;;;;;;0.78;100.00;102894.53;5113735;28;20110;-47
2022/01/11 02:32:21;;;;;;;79.57;39.90;;;;;;;0.84;100.00;102894.78;5078651;28;20035;-50
2022/01/11 02:34:47;;;;;;;80.13;39.63;;;;;;;0.97;100.00;102919.47;5113587;28;20042;-52
2022/01/11 02:37:13;;;;;;;82.05;39.63;;;;;;;0.65;100.00;102860.25;5095376;28;20031;-47
2022/01/11 02:39:38;;;;;;;79.53;38.17;;;;;;;0.43;100.00;102812.78;5113441;28;20036;-49
2022/01/11 02:42:04;;;;;;;81.13;39.05;;;;;;;0.93;100.00;102913.28;5112885;28;20407;-48
2022/01/11 02:44:30;;;;;;;83.72;40.05;;;;;;;0.98;100.00;102921.25;5113314;28;20028;-49
2022/01/11 02:46:55;;;;;;;82.82;39.70;;;;;;;0.44;100.00;102821.41;5113460;28;20035;-50
2022/01/11 02:49:21;;;;;;;87.60;40.67;;;;;;;1.00;100.00;102927.34;5078248;28;20035;-51
2022/01/11 02:51:46;;;;;;;87.38;40.80;;;;;;;0.51;100.00;102833.81;5094948;28;20478;-51
2022/01/11 02:54:11;;;;;;;83.45;39.88;;;;;;;0.49;100.00;102827.69;5112748;28;20027;-49
2022/01/11 02:56:37;;;;;;;78.03;38.65;;;;;;;1.02;100.00;102925.72;5113391;28;20081;-52
2022/01/11 02:59:03;;;;;;;82.88;38.85;;;;;;;1.03;100.00;102909.31;5094904;28;20390;-49
2022/01/11 03:01:28;;;;;;;83.57;39.67;;;;;;;0.56;100.00;102838.34;5113114;28;20031;-48
2022/01/11 03:03:54;;;;;;;81.05;39.03;;;;;;;1.05;100.00;102916.34;5078043;28;20042;-49
2022/01/11 03:06:19;;;;;;;85.60;40.60;;;;;;;1.08;100.00;102929.44;5113036;28;20039;-49
2022/01/11 03:08:49;;;;;;;78.22;39.70;;;;;;;1.01;100.00;102916.16;5112926;28;20123;-49
2022/01/11 03:11:16;;;;;;;78.95;38.45;;;;;;;1.11;100.00;102936.44;5095508;28;20448;-50
2022/01/11 03:13:43;;;;;;;78.97;39.67;;;;;;;0.67;100.00;102869.91;5112959;28;20030;-48
2022/01/11 03:16:09;;;;;;;86.72;41.75;;;;;;;0.84;100.00;102899.97;5113048;28;20458;-51
2022/01/11 03:18:35;;;;;;;85.72;41.92;;;;;;;1.12;100.00;102946.00;5112957;28;20571;-49
2022/01/11 03:21:00;;;;;;;91.03;43.20;;;;;;;1.07;100.00;102934.56;5112850;28;20119;-50
2022/01/11 03:23:26;;;;;;;84.40;40.30;;;;;;;0.62;100.00;102853.25;5077704;28;20063;-51
2022/01/11 03:25:52;;;;;;;85.10;40.30;;;;;;;0.72;100.00;102870.94;5112914;28;20111;-51
2022/01/11 03:28:19;;;;;;;88.90;41.13;;;;;;;0.82;100.00;102885.13;5112571;28;20466;-50
2022/01/11 03:30:44;;;;;;;89.10;42.88;;;;;;;0.93;100.00;102904.63;5112819;28;20490;-50
2022/01/11 03:33:09;;;;;;;87.10;42.45;;;;;;;1.16;100.00;102939.22;5112287;28;20035;-50
2022/01/11 03:35:36;;;;;;;87.05;40.72;;;;;;;1.01;100.00;102917.06;5094429;28;20032;-52
2022/01/11 03:38:04;;;;;;;88.50;42.30;;;;;;;1.09;100.00;102932.91;5112148;28;20678;-49
2022/01/11 03:40:30;;;;;;;89.72;41.08;;;;;;;0.53;100.00;102848.59;5112626;28;20475;-50
2022/01/11 03:42:55;;;;;;;90.18;43.17;;;;;;;0.55;100.00;102854.72;5112328;28;20051;-51
2022/01/11 03:45:21;;;;;;;91.97;44.60;;;;;;;0.83;100.00;102900.78;5112620;28;20028;-48
2022/01/11 03:47:48;;;;;;;100.53;43.25;;;;;;;0.99;100.00;102925.59;5112591;28;20540;-53
2022/01/11 03:50:13;;;;;;;101.18;43.78;;;;;;;0.47;100.00;102837.09;5094294;28;20479;-50
2022/01/11 03:52:39;;;;;;;103.10;44.85;;;;;;;0.47;100.00;102837.09;5094045;28;20034;-48
2022/01/11 03:55:12;;;;;;;92.47;41.45;;;;;;;0.38;100.00;102821.19;5112294;28;20028;-51
2022/01/11 03:57:38;;;;;;;89.40;42.88;;;;;;;0.78;100.00;102904.00;5112614;28;20529;-53
2022/01/11 04:00:10;;;;;;;90.75;43.00;;;;;;;-0.13;100.00;102750.91;5112463;28;20031;-50
2022/01/11 04:02:35;;;;;;;95.90;42.55;;;;;;;0.77;100.00;102910.88;5112303;28;20390;-49
2022/01/11 04:05:01;;;;;;;90.57;41.83;;;;;;;0.47;100.00;102878.53;5094055;28;20028;-50
2022/01/11 04:07:27;;;;;;;98.20;42.72;;;;;;;0.66;100.00;102919.94;5094332;28;20027;-49
2022/01/11 04:09:55;;;;;;;87.80;41.50;;;;;;;0.65;100.00;102930.22;5094031;28;20039;-51
2022/01/11 04:12:20;;;;;;;97.38;43.97;;;;;;;0.22;100.00;102855.94;5112292;28;20035;-52
2022/01/11 04:14:46;;;;;;;94.25;42.85;;;;;;;0.43;100.00;102919.00;5094117;28;20110;-49
2022/01/11 04:17:11;;;;;;;89.82;41.50;;;;;;;0.47;100.00;102933.84;5112246;28;20032;-51
2022/01/11 04:19:37;;;;;;;98.60;44.45;;;;;;;0.00;100.00;102858.47;5093696;28;20035;-49
2022/01/11 04:22:03;;;;;;;104.78;44.95;;;;;;;0.21;100.00;102905.06;5093882;28;20063;-51
2022/01/11 04:24:28;;;;;;;96.78;43.17;;;;;;;-0.12;100.00;102852.75;5112334;28;20370;-50
2022/01/11 04:26:54;;;;;;;90.55;43.85;;;;;;;-0.14;100.00;102847.50;5112173;28;20453;-50
2022/01/11 04:29:20;;;;;;;96.43;43.38;;;;;;;0.13;100.00;102891.81;5111742;28;20035;-49
2022/01/11 04:31:45;;;;;;;97.10;42.50;;;;;;;0.38;100.00;102948.13;5112246;28;20356;-47
2022/01/11 04:34:10;;;;;;;93.47;42.58;;;;;;;0.41;100.00;102943.94;5111879;28;20028;-52
2022/01/11 04:36:36;;;;;;;89.32;42.42;;;;;;;0.44;100.00;102930.22;5112349;28;20402;-51
2022/01/11 04:39:04;;;;;;;94.75;45.03;;;;;;;-0.03;100.00;102840.22;5093920;28;20031;-49
2022/01/11 04:41:30;;;;;;;97.53;44.33;;;;;;;0.07;100.00;102849.22;5112156;28;20086;-52
2022/01/11 04:43:55;;;;;;;97.30;46.00;;;;;;;0.51;100.00;102924.50;5112652;28;20055;-46
2022/01/11 04:46:20;;;;;;;90.53;43.13;;;;;;;-0.12;100.00;102822.56;5115513;28;20418;-53
2022/01/11 04:48:47;;;;;;;94.43;44.85;;;;;;;0.09;100.00;102865.72;5097355;28;20031;-50
2022/01/11 04:51:12;;;;;;;93.80;44.53;;;;;;;-0.01;100.00;102842.03;5097759;28;20527;-50
2022/01/11 04:53:38;;;;;;;101.55;46.38;;;;;;;0.53;100.00;102925.44;5097537;28;20119;-51
2022/01/11 04:56:04;;;;;;;98.75;47.05;;;;;;;0.57;100.00;102941.19;5097010;28;20475;-51
2022/01/11 04:58:29;;;;;;;98.82;44.90;;;;;;;0.58;100.00;102940.34;5115394;28;20070;-50
2022/01/11 05:00:54;;;;;;;103.15;45.75;;;;;;;0.46;100.00;102906.19;5115520;28;20035;-49
2022/01/11 05:03:20;;;;;;;100.57;46.17;;;;;;;0.60;100.00;102927.47;5097178;28;20527;-52
2022/01/11 05:05:46;;;;;;;89.32;45.50;;;;;;;0.29;100.00;102878.66;5115230;28;20056;-51
2022/01/11 05:08:12;;;;;;;99.50;45.25;;;;;;;0.50;100.00;102913.25;5115303;28;20066;-49
2022/01/11 05:10:42;;;;;;;94.30;45.53;;;;;;;0.58;100.00;102922.19;5115465;28;20027;-49
2022/01/11 05:13:10;;;;;;;94.32;44.78;;;;;;;0.02;100.00;102815.38;5115161;28;20027;-50
2022/01/11 05:15:35;;;;;;;89.65;43.03;;;;;;;0.63;100.00;102935.38;5115144;28;20035;-52
2022/01/11 05:18:00;;;;;;;94.15;46.05;;;;;;;0.46;100.00;102906.19;5115065;28;20039;-50
2022/01/11 05:20:26;;;;;;;86.60;42.53;;;;;;;0.14;100.00;102854.75;5115362;28;20035;-51
2022/01/11 05:22:51;;;;;;;87.18;42.72;;;;;;;0.53;100.00;102938.38;5115220;28;20027;-51
2022/01/11 05:25:17;;;;;;;84.60;42.53;;;;;;;0.46;100.00;102916.53;5096709;28;20031;-50
2022/01/11 05:27:43;;;;;;;79.22;43.22;;;;;;;0.04;100.00;102846.50;5114917;28;20263;-49
2022/01/11 05:30:09;;;;;;;79.80;41.75;;;;;;;0.51;100.00;102943.53;5096562;28;20085;-49
2022/01/11 05:32:35;;;;;;;78.68;40.90;;;;;;;0.50;100.00;102928.78;5114724;28;20118;-52
2022/01/11 05:35:06;;;;;;;84.55;42.17;;;;;;;-0.06;100.00;102843.53;5112364;28;20123;-48
2022/01/11 05:37:31;;;;;;;74.15;40.30;;;;;;;0.04;100.00;102860.34;5086517;28;20024;-49
2022/01/11 05:39:58;;;;;;;68.95;38.58;;;;;;;0.50;100.00;102930.47;5112789;28;20080;-48
2022/01/11 05:42:26;;;;;;;73.80;37.78;;;;;;;0.12;100.00;102866.72;5114405;28;20048;-47
2022/01/11 05:44:52;;;;;;;67.65;38.22;;;;;;;0.57;100.00;102953.25;5114879;28;20028;-49
2022/01/11 05:47:17;;;;;;;72.05;40.95;;;;;;;0.06;100.00;102850.91;5114526;28;20096;-54
2022/01/11 05:49:43;;;;;;;66.40;37.63;;;;;;;0.49;100.00;102936.50;5095825;28;20475;-48
2022/01/11 05:52:08;;;;;;;61.30;37.42;;;;;;;0.58;100.00;102947.25;5094382;28;20255;-50
2022/01/11 05:54:33;;;;;;;63.17;37.03;;;;;;;-0.04;100.00;102831.56;5114119;28;20093;-50
2022/01/11 05:57:00;;;;;;;67.03;38.00;;;;;;;0.09;100.00;102861.41;5078874;28;20503;-50
2022/01/11 05:59:25;;;;;;;62.55;36.80;;;;;;;0.51;100.00;102940.94;5114243;28;20455;-52
2022/01/11 06:01:51;;;;;;;57.90;34.03;;;;;;;0.65;100.00;102953.56;5096099;28;20055;-52
2022/01/11 06:04:16;;;;;;;64.45;35.67;;;;;;;0.16;100.00;102860.84;5114430;28;20028;-49
2022/01/11 06:06:41;;;;;;;60.83;36.45;;;;;;;0.64;100.00;102960.47;5114564;28;20031;-48
2022/01/11 06:09:07;;;;;;;63.15;35.42;;;;;;;0.57;100.00;102938.59;5095895;28;20035;-51
2022/01/11 06:11:32;;;;;;;63.42;36.00;;;;;;;-0.01;100.00;102841.16;5114076;28;20038;-53
2022/01/11 06:13:58;;;;;;;61.65;35.92;;;;;;;0.59;100.00;102941.25;5114013;28;20433;-51
2022/01/11 06:16:23;;;;;;;65.10;37.55;;;;;;;0.53;100.00;102951.34;5113892;28;20054;-50
2022/01/11 06:18:49;;;;;;;72.65;37.55;;;;;;;0.29;100.00;102917.50;5095792;28;20035;-50
2022/01/11 06:21:14;;;;;;;68.10;37.80;;;;;;;0.46;100.00;102954.50;5095986;28;20059;-49
2022/01/11 06:23:40;;;;;;;77.07;39.95;;;;;;;0.43;100.00;102960.47;5113967;28;20028;-51
2022/01/11 06:26:05;;;;;;;71.72;39.60;;;;;;;0.41;100.00;102962.06;5095676;28;20495;-52
2022/01/11 06:28:31;;;;;;;75.00;39.55;;;;;;;0.41;100.00;102963.78;5113937;28;20027;-47
2022/01/11 06:30:56;;;;;;;63.97;35.90;;;;;;;0.00;100.00;102886.94;5113959;28;20043;-50
2022/01/11 06:33:22;;;;;;;69.32;36.28;;;;;;;0.47;100.00;102977.00;5095713;28;20110;-49
2022/01/11 06:35:47;;;;;;;58.38;35.13;;;;;;;0.23;100.00;102935.41;5113594;28;20046;-52
2022/01/11 06:38:14;;;;;;;60.58;35.63;;;;;;;0.42;100.00;102979.41;5113692;28;20475;-50
2022/01/11 06:40:39;;;;;;;59.15;35.28;;;;;;;-0.07;100.00;102903.00;5078810;28;20028;-52
2022/01/11 06:43:06;;;;;;;58.80;32.22;;;;;;;0.43;100.00;102991.56;5113268;28;20054;-50
2022/01/11 06:45:32;;;;;;;54.17;32.63;;;;;;;0.37;100.00;102986.09;5113345;28;20031;-48
2022/01/11 06:47:57;;;;;;;59.95;33.97;;;;;;;0.48;100.00;102995.22;5113525;28;20047;-51
2022/01/11 06:50:23;;;;;;;59.53;33.60;;;;;;;0.48;100.00;102984.84;5095111;28;20035;-52
2022/01/11 06:52:48;;;;;;;56.85;33.30;;;;;;;0.19;100.00;102935.19;5113239;28;20127;-47
2022/01/11 06:55:14;;;;;;;54.80;32.08;;;;;;;0.55;100.00;103002.41;5113218;28;20051;-51
2022/01/11 06:57:40;;;;;;;55.97;32.50;;;;;;;0.45;100.00;102970.88;5095198;28;20466;-49
2022/01/11 07:00:07;;;;;;;52.45;32.42;;;;;;;0.62;100.00;103000.97;5113133;28;20038;-50
2022/01/11 07:02:32;;;;;;;56.35;32.15;;;;;;;0.66;100.00;103000.28;5113475;28;20151;-52
2022/01/11 07:04:58;;;;;;;52.45;32.28;;;;;;;0.16;100.00;102920.41;5113083;28;20056;-51
2022/01/11 07:07:23;;;;;;;56.35;32.95;;;;;;;0.21;100.00;102910.25;5112196;28;20550;-49
2022/01/11 07:09:49;;;;;;;49.90;31.20;;;;;;;0.70;100.00;103014.28;5112861;28;20394;-51
2022/01/11 07:12:14;;;;;;;47.70;30.08;;;;;;;0.61;100.00;102987.97;5112769;28;20440;-49
2022/01/11 07:14:39;;;;;;;49.60;30.17;;;;;;;0.62;100.00;102989.72;5112690;28;20452;-49
2022/01/11 07:17:05;;;;;;;49.80;29.35;;;;;;;0.29;100.00;102932.19;5094332;28;20027;-51
2022/01/11 07:19:30;;;;;;;50.03;29.35;;;;;;;0.68;100.00;103013.31;5112883;28;20027;-53
2022/01/11 07:21:58;;;;;;;51.95;28.75;;;;;;;0.20;100.00;102934.38;5094632;28;20031;-51
2022/01/11 07:24:24;;;;;;;48.55;30.38;;;;;;;0.63;100.00;103023.50;5112784;28;20034;-50
2022/01/11 07:26:50;;;;;;;52.28;30.13;;;;;;;0.61;100.00;103037.22;5112248;28;20023;-51
2022/01/11 07:29:15;;;;;;;51.60;30.45;;;;;;;0.47;100.00;103006.38;5112621;28;20067;-49
2022/01/11 07:31:41;;;;;;;47.47;29.90;;;;;;;0.53;100.00;103029.97;5112476;28;20464;-49
2022/01/11 07:34:07;;;;;;;46.95;28.45;;;;;;;0.49;100.00;103032.38;5112786;28;20032;-51
2022/01/11 07:36:33;;;;;;;49.55;28.33;;;;;;;0.05;100.00;102957.03;5112086;28;20031;-51
2022/01/11 07:38:59;;;;;;;46.60;28.88;;;;;;;0.42;100.00;103023.44;5112040;28;20031;-50
2022/01/11 07:41:24;;;;;;;46.47;28.20;;;;;;;0.41;100.00;103023.38;5107335;28;20035;-50
2022/01/11 07:43:49;;;;;;;49.80;28.38;;;;;;;0.26;100.00;103000.31;5071714;28;20035;-49
2022/01/11 07:46:15;;;;;;;44.03;25.73;;;;;;;0.20;100.00;103018.16;5090905;28;20361;-53
2022/01/11 07:48:40;;;;;;;47.30;27.35;;;;;;;-0.23;100.00;102939.38;5089654;28;20078;-58
2022/01/11 07:51:06;;;;;;;44.63;27.08;;;;;;;0.29;100.00;103035.81;5089701;28;20028;-54
2022/01/11 07:53:31;;;;;;;44.67;28.42;;;;;;;-0.18;100.00;102963.78;5073342;28;20116;-56
2022/01/11 07:55:57;;;;;;;46.28;27.02;;;;;;;0.22;100.00;103033.75;5091258;28;20060;-57
2022/01/11 07:58:23;;;;;;;47.78;27.13;;;;;;;0.22;100.00;103055.38;5091548;28;20028;-55
2022/01/11 08:00:48;;;;;;;49.10;29.58;;;;;;;0.21;100.00;103045.81;5071811;28;20059;-55
2022/01/11 08:03:14;;;;;;;44.67;27.08;;;;;;;0.20;100.00;103041.47;5090168;28;20155;-52
2022/01/11 08:05:39;;;;;;;48.03;26.20;;;;;;;0.12;100.00;103035.03;5092038;28;20509;-53
2022/01/11 08:08:05;;;;;;;45.95;27.50;;;;;;;-0.38;100.00;102949.06;5091844;28;20029;-55
2022/01/11 08:10:31;;;;;;;40.85;26.58;;;;;;;0.16;100.00;103046.41;5091951;28;20406;-50
2022/01/11 08:12:56;;;;;;;45.80;26.30;;;;;;;0.13;100.00;103044.59;5091997;28;20036;-52
2022/01/11 08:15:22;;;;;;;47.90;27.75;;;;;;;0.18;100.00;103050.84;5073957;28;20032;-55
2022/01/11 08:17:47;;;;;;;49.42;26.73;;;;;;;0.17;100.00;103054.28;5092057;28;20036;-51
2022/01/11 08:20:13;;;;;;;48.58;27.73;;;;;;;0.03;100.00;103044.97;5094591;28;20036;-50
2022/01/11 08:22:39;;;;;;;42.10;27.02;;;;;;;0.17;100.00;103058.56;5077590;28;20107;-55
2022/01/11 08:25:05;;;;;;;52.88;28.00;;;;;;;0.14;100.00;103050.66;5077487;28;20162;-52
2022/01/11 08:27:33;;;;;;;46.22;27.15;;;;;;;0.16;100.00;103073.22;5077752;28;20051;-53
2022/01/11 08:29:59;;;;;;;44.35;26.75;;;;;;;-0.34;100.00;102975.13;5077902;28;20498;-50
2022/01/11 08:32:24;;;;;;;47.70;27.25;;;;;;;0.16;100.00;103065.44;5095739;28;20040;-56
2022/01/11 08:34:49;;;;;;;48.42;28.55;;;;;;;0.18;100.00;103066.38;5060906;28;20032;-55
2022/01/11 08:37:15;;;;;;;48.85;27.63;;;;;;;0.08;100.00;103040.91;5095567;28;20028;-55
2022/01/11 08:39:42;;;;;;;43.53;26.30;;;;;;;0.19;100.00;103054.34;5095160;28;20035;-52
2022/01/11 08:42:12;;;;;;;42.42;26.48;;;;;;;-0.28;100.00;102979.69;5073803;28;20074;-54
2022/01/11 08:44:37;;;;;;;44.75;27.40;;;;;;;0.19;100.00;103063.00;5075238;28;20476;-52
2022/01/11 08:47:03;;;;;;;46.03;26.15;;;;;;;-0.29;100.00;102971.03;5075074;28;20833;-52
2022/01/11 08:49:28;;;;;;;47.25;28.13;;;;;;;-0.02;100.00;103020.59;5075661;28;20112;-53
2022/01/11 08:51:53;;;;;;;44.58;26.25;;;;;;;0.30;100.00;103060.88;5075030;28;20035;-54
2022/01/11 08:54:23;;;;;;;45.45;26.38;;;;;;;0.31;100.00;103075.59;5057082;28;20078;-53
2022/01/11 08:56:48;;;;;;;42.42;26.42;;;;;;;0.31;100.00;103070.44;5075337;28;20058;-52
2022/01/11 08:59:13;;;;;;;43.40;25.60;;;;;;;0.31;100.00;103053.19;5073816;28;20028;-53
2022/01/11 09:01:39;;;;;;;45.42;26.15;;;;;;;-0.15;100.00;102977.75;5074883;28;20037;-52
2022/01/11 09:04:04;;;;;;;40.03;25.10;;;;;;;0.33;100.00;103069.66;5056813;28;20082;-51
2022/01/11 09:06:30;;;;;;;38.80;24.27;;;;;;;0.32;100.00;103079.97;5057022;28;20032;-53
2022/01/11 09:08:55;;;;;;;46.22;26.67;;;;;;;-0.12;100.00;102993.38;5074991;28;20037;-54
2022/01/11 09:11:20;;;;;;;40.40;23.52;;;;;;;0.18;100.00;103048.25;5056848;28;20047;-51
2022/01/11 09:13:46;;;;;;;39.20;24.98;;;;;;;0.31;100.00;103076.50;5074504;28;20068;-52
2022/01/11 09:16:12;;;;;;;38.22;23.17;;;;;;;-0.22;100.00;102993.81;5074625;28;20037;-55
2022/01/11 09:18:38;;;;;;;41.25;23.05;;;;;;;0.34;100.00;103091.28;5074652;28;20502;-53
2022/01/11 09:21:04;;;;;;;39.72;24.80;;;;;;;0.34;100.00;103091.28;5056743;28;20039;-52
2022/01/11 09:23:30;;;;;;;39.53;22.38;;;;;;;0.23;100.00;103056.25;5040247;28;20032;-50
2022/01/11 09:25:56;;;;;;;40.03;22.67;;;;;;;-0.11;100.00;102992.59;5074704;28;20033;-52
2022/01/11 09:28:22;;;;;;;36.20;22.30;;;;;;;0.43;100.00;103068.38;5056445;28;20025;-49
2022/01/11 09:30:48;;;;;;;33.65;21.67;;;;;;;0.53;100.00;103083.50;5074006;28;20033;-52
2022/01/11 09:33:13;;;;;;;37.85;21.27;;;;;;;0.53;100.00;103086.09;5074446;28;20039;-51
2022/01/11 09:35:39;;;;;;;30.67;20.55;;;;;;;0.52;100.00;103085.22;5074635;28;20044;-53
2022/01/11 09:38:04;;;;;;;31.40;20.95;;;;;;;0.54;100.00;103074.91;5074345;28;20032;-52
2022/01/11 09:40:30;;;;;;;32.95;20.13;;;;;;;0.58;100.00;103084.63;5074303;28;20036;-50
2022/01/11 09:42:55;;;;;;;37.08;21.88;;;;;;;0.60;100.00;103095.91;5090979;28;20052;-54
2022/01/11 09:45:21;;;;;;;33.28;20.00;;;;;;;-1.07;100.00;102782.13;5076139;28;20035;-53
2022/01/11 09:47:47;;;;;;;33.55;20.80;;;;;;;0.64;100.00;103074.50;5094380;28;20536;-54
2022/01/11 09:50:14;;;;;;;32.42;19.45;;;;;;;0.77;100.00;103094.06;5076003;28;20024;-54
2022/01/11 09:52:40;;;;;;;32.08;20.08;;;;;;;0.82;100.00;103102.91;5094437;28;20032;-52
2022/01/11 09:55:08;;;;;;;33.28;20.77;;;;;;;0.85;100.00;103085.78;5092044;28;20041;-52
2022/01/11 09:57:34;;;;;;;33.50;19.92;;;;;;;0.91;100.00;103086.03;5074860;28;20040;-55
2022/01/11 10:00:00;;;;;;;29.25;19.45;;;;;;;0.48;100.00;102991.72;5092511;28;20038;-53
2022/01/11 10:02:25;;;;;;;33.83;19.10;;;;;;;0.96;100.00;103073.28;5074259;28;20070;-54
2022/01/11 10:04:59;;;;;;;29.52;18.73;;;;;;;1.01;100.00;103084.75;5092695;28;20031;-53
2022/01/11 10:07:32;;;;;;;30.17;18.88;;;;;;;0.65;100.00;103008.88;5074975;28;20036;-54
2022/01/11 10:09:58;;;;;;;29.48;19.33;;;;;;;1.10;100.00;103092.91;5074709;28;20032;-53
2022/01/11 10:12:24;;;;;;;30.33;20.13;;;;;;;1.07;100.00;103069.44;5074447;28;20526;-52
2022/01/11 10:14:57;;;;;;;29.38;19.88;;;;;;;1.10;100.00;103064.38;5092286;28;20036;-50
2022/01/11 10:17:28;;;;;;;32.75;22.02;;;;;;;0.82;100.00;103027.72;5074249;28;20077;-54
2022/01/11 10:20:13;;;;;;;27.98;20.65;;;;;;;1.28;100.00;103104.06;5092728;28;20032;-56
2022/01/11 10:22:49;;;;;;;29.27;20.77;;;;;;;1.33;100.00;103104.22;5074410;28;20028;-54
2022/01/11 10:25:15;;;;;;;34.13;23.38;;;;;;;1.39;100.00;103114.84;5092347;28;20051;-52
2022/01/11 10:27:40;;;;;;;29.55;21.08;;;;;;;1.36;100.00;103096.56;5074396;28;20472;-52
2022/01/11 10:30:12;;;;;;;27.90;18.95;;;;;;;0.89;100.00;103007.31;5092184;28;20047;-53
2022/01/11 10:32:42;;;;;;;23.92;18.17;;;;;;;1.03;100.00;103019.13;5092583;28;20110;-51
2022/01/11 10:35:14;;;;;;;27.98;19.25;;;;;;;1.14;100.00;103032.53;5092197;28;20491;-51
2022/01/11 10:37:47;;;;;;;27.67;17.70;;;;;;;1.42;100.00;103070.88;5092322;28;20079;-51
2022/01/11 10:40:18;;;;;;;28.35;18.88;;;;;;;1.76;100.00;103138.00;5091975;28;20028;-53
2022/01/11 10:42:46;;;;;;;;;;;;;;;1.81;100.00;103126.09;5091610;28;20059;-56
2022/01/11 10:45:18;;;;;;;26.45;17.20;;;;;;;1.85;100.00;103130.56;5091852;28;19916;-53
2022/01/11 10:47:47;;;;;;;26.92;17.27;;;;;;;1.92;100.00;103123.09;5092001;28;20028;-53
2022/01/11 10:50:12;;;;;;;25.60;17.30;;;;;;;1.99;100.00;103106.91;5091785;28;20036;-54
2022/01/11 10:52:38;;;;;;;24.30;16.63;;;;;;;1.43;100.00;103006.03;5092019;28;20035;-54
2022/01/11 10:55:06;;;;;;;28.02;17.00;;;;;;;1.70;100.00;103043.47;5091638;28;20044;-57
2022/01/11 10:57:36;;;;;;;24.42;15.77;;;;;;;2.18;100.00;103119.78;5074200;28;20074;-56
2022/01/11 11:00:04;;;;;;;29.80;16.42;;;;;;;2.26;100.00;103136.53;5091927;28;20036;-55
2022/01/11 11:02:30;;;;;;;26.95;15.52;;;;;;;1.84;100.00;103032.72;5091890;28;20036;-52
2022/01/11 11:04:58;;;;;;;21.83;16.08;;;;;;;2.41;100.00;103127.53;5092409;28;20246;-52
2022/01/11 11:07:25;;;;;;;24.42;15.80;;;;;;;1.92;100.00;103031.31;5091627;28;20031;-54